createdAt,value
2019-02-09T00:00:18.348Z,987.24
2019-02-09T00:01:18.339Z,987.23
2019-02-09T00:02:18.317Z,987.26
2019-02-09T00:03:18.324Z,987.33
2019-02-09T00:04:18.269Z,987.26
2019-02-09T00:05:18.268Z,987.24
2019-02-09T00:06:18.220Z,987.28
2019-02-09T00:07:18.190Z,987.26
2019-02-09T00:08:18.162Z,987.28
2019-02-09T00:09:18.145Z,987.22
2019-02-09T00:10:18.119Z,987.25
2019-02-09T00:11:18.093Z,987.26
2019-02-09T00:12:18.075Z,987.30
2019-02-09T00:13:18.071Z,987.21
2019-02-09T00:14:18.032Z,987.27
2019-02-09T00:15:18.056Z,987.27
2019-02-09T00:16:18.006Z,987.33
2019-02-09T00:17:17.980Z,987.34
2019-02-09T00:18:17.965Z,987.37
2019-02-09T00:19:17.931Z,987.27
2019-02-09T00:20:17.900Z,987.31
2019-02-09T00:21:17.871Z,987.33
2019-02-09T00:22:17.850Z,987.36
2019-02-09T00:23:17.841Z,987.34
2019-02-09T00:24:17.801Z,987.34
2019-02-09T00:25:17.784Z,987.30
2019-02-09T00:26:17.749Z,987.31
2019-02-09T00:27:17.741Z,987.24
2019-02-09T00:28:17.704Z,987.30
2019-02-09T00:29:17.694Z,987.20
2019-02-09T00:30:17.661Z,987.09
2019-02-09T00:31:17.636Z,987.10
2019-02-09T00:32:17.625Z,987.06
2019-02-09T00:33:17.607Z,987.11
2019-02-09T00:34:17.596Z,987.03
2019-02-09T00:35:17.567Z,987.00
2019-02-09T00:36:17.524Z,986.99
2019-02-09T00:37:17.509Z,986.92
2019-02-09T00:38:17.484Z,986.87
2019-02-09T00:39:17.468Z,986.80
2019-02-09T00:40:17.439Z,986.74
2019-02-09T00:41:17.401Z,986.69
2019-02-09T00:42:17.390Z,986.56
2019-02-09T00:43:17.356Z,986.68
2019-02-09T00:44:17.334Z,986.67
2019-02-09T00:45:17.312Z,986.72
2019-02-09T00:46:17.296Z,986.63
2019-02-09T00:47:17.262Z,986.62
2019-02-09T00:48:17.241Z,986.61
2019-02-09T00:49:17.237Z,986.68
2019-02-09T00:50:17.221Z,986.63
2019-02-09T00:51:17.184Z,986.71
2019-02-09T00:52:17.161Z,986.63
2019-02-09T00:53:17.132Z,986.68
2019-02-09T00:54:17.121Z,986.61
2019-02-09T00:55:17.080Z,986.58
2019-02-09T00:56:17.067Z,986.44
2019-02-09T00:57:17.040Z,986.54
2019-02-09T00:58:17.011Z,986.49
2019-02-09T00:59:17.059Z,986.55
2019-02-09T01:00:16.965Z,986.72
2019-02-09T01:01:16.945Z,986.71
2019-02-09T01:02:16.916Z,986.66
2019-02-09T01:03:16.909Z,986.60
2019-02-09T01:04:16.927Z,986.58
2019-02-09T01:05:16.858Z,986.60
2019-02-09T01:06:16.831Z,986.69
2019-02-09T01:07:16.810Z,986.58
2019-02-09T01:08:16.794Z,986.51
2019-02-09T01:09:16.760Z,986.57
2019-02-09T01:10:16.737Z,986.64
2019-02-09T01:11:16.714Z,986.61
2019-02-09T01:12:16.686Z,986.47
2019-02-09T01:13:16.694Z,986.38
2019-02-09T01:14:16.650Z,986.42
2019-02-09T01:15:16.621Z,986.40
2019-02-09T01:16:16.621Z,986.35
2019-02-09T01:17:16.578Z,986.33
2019-02-09T01:18:16.549Z,986.40
2019-02-09T01:19:16.523Z,986.33
2019-02-09T01:20:16.498Z,986.35
2019-02-09T01:21:16.498Z,986.24
2019-02-09T01:22:16.467Z,986.27
2019-02-09T01:23:16.454Z,986.25
2019-02-09T01:24:16.414Z,986.28
2019-02-09T01:25:16.384Z,986.30
2019-02-09T01:26:16.384Z,986.28
2019-02-09T01:27:16.346Z,986.37
2019-02-09T01:28:16.316Z,986.42
2019-02-09T01:29:16.309Z,986.33
2019-02-09T01:30:16.271Z,986.35
2019-02-09T01:31:16.576Z,986.32
2019-02-09T01:32:16.223Z,986.42
2019-02-09T01:33:16.205Z,986.33
2019-02-09T01:34:16.182Z,986.39
2019-02-09T01:35:16.174Z,986.36
2019-02-09T01:36:16.207Z,986.41
2019-02-09T01:37:16.110Z,986.42
2019-02-09T01:38:16.085Z,986.39
2019-02-09T01:39:16.733Z,986.43
2019-02-09T01:40:16.044Z,986.46
2019-02-09T01:41:16.030Z,986.43
2019-02-09T01:42:15.988Z,986.38
2019-02-09T01:43:16.378Z,986.38
2019-02-09T01:44:15.996Z,986.31
2019-02-09T01:45:15.929Z,986.42
2019-02-09T01:46:15.926Z,986.40
2019-02-09T01:47:15.931Z,986.25
2019-02-09T01:48:15.875Z,986.37
2019-02-09T01:49:15.860Z,986.29
2019-02-09T01:50:15.866Z,986.32
2019-02-09T01:51:15.782Z,986.31
2019-02-09T01:52:15.758Z,986.34
2019-02-09T01:53:15.760Z,986.38
2019-02-09T01:54:15.724Z,986.34
2019-02-09T01:55:15.702Z,986.26
2019-02-09T01:56:15.682Z,986.36
2019-02-09T01:57:15.643Z,986.37
2019-02-09T01:58:15.634Z,986.29
2019-02-09T01:59:15.604Z,986.37
2019-02-09T02:00:15.624Z,986.33
2019-02-09T02:01:15.569Z,986.32
2019-02-09T02:02:15.526Z,986.35
2019-02-09T02:03:15.510Z,986.29
2019-02-09T02:04:15.498Z,986.31
2019-02-09T02:05:15.491Z,986.33
2019-02-09T02:06:15.431Z,986.35
2019-02-09T02:07:15.441Z,986.30
2019-02-09T02:08:15.408Z,986.32
2019-02-09T02:09:15.391Z,986.35
2019-02-09T02:10:15.347Z,986.23
2019-02-09T02:11:15.334Z,986.28
2019-02-09T02:12:15.309Z,986.36
2019-02-09T02:16:19.453Z,986.37
2019-02-09T02:17:19.423Z,986.48
2019-02-09T02:19:14.777Z,986.37
2019-02-09T02:20:14.763Z,986.40
2019-02-09T02:21:14.720Z,986.35
2019-02-09T02:22:14.704Z,986.36
2019-02-09T02:23:14.675Z,986.36
2019-02-09T02:24:14.650Z,986.36
2019-02-09T02:25:14.623Z,986.34
2019-02-09T02:26:14.603Z,986.34
2019-02-09T02:27:14.587Z,986.30
2019-02-09T02:28:14.575Z,986.38
2019-02-09T02:29:14.534Z,986.35
2019-02-09T02:30:22.158Z,986.37
2019-02-09T02:31:14.540Z,986.32
2019-02-09T02:32:14.474Z,986.34
2019-02-09T02:33:14.449Z,986.40
2019-02-09T02:34:14.420Z,986.43
2019-02-09T02:35:14.402Z,986.44
2019-02-09T02:36:14.379Z,986.39
2019-02-09T02:37:14.359Z,986.38
2019-02-09T02:38:14.325Z,986.30
2019-02-09T02:39:14.297Z,986.32
2019-02-09T02:40:14.290Z,986.29
2019-02-09T02:41:14.253Z,986.24
2019-02-09T02:42:14.250Z,986.20
2019-02-09T02:43:14.222Z,986.20
2019-02-09T02:44:14.205Z,986.15
2019-02-09T02:45:14.163Z,986.16
2019-02-09T02:46:14.165Z,986.14
2019-02-09T02:47:14.132Z,986.11
2019-02-09T02:48:14.133Z,986.08
2019-02-09T02:49:14.075Z,986.07
2019-02-09T02:50:14.050Z,986.06
2019-02-09T02:51:14.043Z,985.96
2019-02-09T02:52:14.009Z,985.95
2019-02-09T02:53:13.986Z,985.95
2019-02-09T02:54:13.954Z,985.93
2019-02-09T02:55:13.932Z,985.93
2019-02-09T02:56:13.902Z,985.88
2019-02-09T02:57:13.898Z,985.90
2019-02-09T02:58:13.862Z,985.93
2019-02-09T02:59:13.835Z,985.91
2019-02-09T03:00:13.812Z,985.95
2019-02-09T03:01:13.794Z,986.03
2019-02-09T03:02:13.806Z,986.03
2019-02-09T03:03:13.751Z,986.01
2019-02-09T03:04:13.744Z,986.03
2019-02-09T03:05:13.746Z,986.02
2019-02-09T03:06:13.665Z,986.04
2019-02-09T03:07:13.663Z,986.05
2019-02-09T03:08:13.618Z,986.12
2019-02-09T03:09:13.594Z,986.08
2019-02-09T03:10:13.587Z,986.10
2019-02-09T03:11:13.571Z,986.08
2019-02-09T03:12:13.539Z,986.15
2019-02-09T03:13:13.510Z,986.21
2019-02-09T03:14:13.492Z,986.18
2019-02-09T03:15:13.454Z,986.17
2019-02-09T03:16:13.441Z,986.17
2019-02-09T03:17:13.409Z,986.18
2019-02-09T03:18:13.415Z,986.18
2019-02-09T03:19:13.407Z,986.15
2019-02-09T03:20:13.358Z,986.19
2019-02-09T03:21:13.338Z,986.21
2019-02-09T03:22:13.290Z,986.25
2019-02-09T03:23:13.271Z,986.30
2019-02-09T03:24:13.283Z,986.35
2019-02-09T03:25:13.237Z,986.26
2019-02-09T03:26:13.235Z,986.33
2019-02-09T03:27:13.186Z,986.31
2019-02-09T03:28:13.167Z,986.39
2019-02-09T03:29:13.137Z,986.41
2019-02-09T03:30:13.115Z,986.47
2019-02-09T03:31:13.089Z,986.35
2019-02-09T03:32:13.086Z,986.37
2019-02-09T03:33:13.069Z,986.39
2019-02-09T03:34:13.017Z,986.44
2019-02-09T03:35:12.997Z,986.42
2019-02-09T03:36:12.979Z,986.49
2019-02-09T03:37:12.957Z,986.45
2019-02-09T03:38:12.929Z,986.43
2019-02-09T03:39:12.935Z,986.44
2019-02-09T03:40:12.881Z,986.50
2019-02-09T03:41:12.861Z,986.50
2019-02-09T03:42:12.830Z,986.54
2019-02-09T03:43:12.808Z,986.52
2019-02-09T03:44:12.787Z,986.53
2019-02-09T03:45:12.762Z,986.56
2019-02-09T03:46:12.743Z,986.55
2019-02-09T03:47:12.713Z,986.46
2019-02-09T03:48:12.694Z,986.47
2019-02-09T03:49:12.711Z,986.47
2019-02-09T03:50:12.659Z,986.48
2019-02-09T03:51:12.625Z,986.47
2019-02-09T03:52:12.603Z,986.47
2019-02-09T03:53:12.566Z,986.44
2019-02-09T03:54:12.544Z,986.49
2019-02-09T03:55:12.569Z,986.51
2019-02-09T03:56:12.497Z,986.51
2019-02-09T03:57:12.487Z,986.55
2019-02-09T03:58:12.468Z,986.59
2019-02-09T03:59:12.438Z,986.60
2019-02-09T04:00:12.405Z,986.66
2019-02-09T04:01:12.382Z,986.69
2019-02-09T04:02:12.390Z,986.61
2019-02-09T04:03:12.344Z,986.67
2019-02-09T04:04:12.319Z,986.61
2019-02-09T04:05:12.288Z,986.68
2019-02-09T04:06:12.280Z,986.72
2019-02-09T04:07:12.244Z,986.68
2019-02-09T04:08:12.225Z,986.67
2019-02-09T04:09:12.201Z,986.68
2019-02-09T04:10:12.171Z,986.69
2019-02-09T04:11:12.172Z,986.73
2019-02-09T04:12:12.133Z,986.75
2019-02-09T04:13:12.109Z,986.83
2019-02-09T04:14:12.112Z,986.74
2019-02-09T04:15:12.077Z,986.81
2019-02-09T04:16:12.031Z,986.86
2019-02-09T04:17:12.005Z,986.80
2019-02-09T04:18:12.017Z,986.85
2019-02-09T04:19:11.987Z,986.88
2019-02-09T04:20:11.943Z,986.91
2019-02-09T04:21:11.929Z,986.93
2019-02-09T04:22:11.914Z,986.91
2019-02-09T04:23:11.873Z,986.87
2019-02-09T04:24:11.849Z,986.92
2019-02-09T04:25:11.855Z,986.90
2019-02-09T04:26:11.822Z,986.88
2019-02-09T04:27:11.772Z,986.90
2019-02-09T04:28:11.761Z,986.86
2019-02-09T04:29:11.766Z,986.93
2019-02-09T04:30:11.722Z,986.94
2019-02-09T04:31:11.711Z,986.96
2019-02-09T04:32:11.691Z,986.97
2019-02-09T04:33:11.646Z,986.94
2019-02-09T04:34:11.676Z,986.93
2019-02-09T04:35:11.597Z,986.93
2019-02-09T04:36:11.616Z,986.96
2019-02-09T04:37:11.576Z,986.91
2019-02-09T04:38:11.542Z,986.86
2019-02-09T04:39:11.500Z,986.80
2019-02-09T04:40:11.484Z,986.87
2019-02-09T04:41:11.456Z,986.90
2019-02-09T04:42:11.427Z,986.91
2019-02-09T04:43:11.438Z,986.94
2019-02-09T04:44:11.404Z,986.93
2019-02-09T04:45:11.369Z,986.95
2019-02-09T04:46:11.352Z,986.99
2019-02-09T04:47:11.366Z,986.91
2019-02-09T04:48:11.332Z,986.99
2019-02-09T04:49:11.276Z,986.98
2019-02-09T04:50:11.241Z,986.96
2019-02-09T04:51:11.222Z,987.03
2019-02-09T04:52:11.194Z,987.08
2019-02-09T04:53:11.182Z,987.18
2019-02-09T04:54:11.154Z,987.19
2019-02-09T04:55:11.126Z,987.30
2019-02-09T04:56:11.103Z,987.26
2019-02-09T04:57:11.194Z,987.32
2019-02-09T04:58:11.054Z,987.36
2019-02-09T04:59:11.050Z,987.39
2019-02-09T05:00:11.039Z,987.40
2019-02-09T05:01:14.065Z,987.43
2019-02-09T05:02:11.002Z,987.33
2019-02-09T05:03:10.961Z,987.46
2019-02-09T05:04:10.928Z,987.42
2019-02-09T05:05:10.890Z,987.37
2019-02-09T05:06:10.872Z,987.42
2019-02-09T05:07:10.876Z,987.44
2019-02-09T05:08:10.820Z,987.37
2019-02-09T05:09:10.836Z,987.39
2019-02-09T05:10:10.797Z,987.37
2019-02-09T05:11:10.746Z,987.35
2019-02-09T05:12:10.732Z,987.37
2019-02-09T05:13:10.721Z,987.34
2019-02-09T05:14:10.687Z,987.38
2019-02-09T05:15:10.660Z,987.36
2019-02-09T05:16:10.638Z,987.34
2019-02-09T05:17:10.609Z,987.38
2019-02-09T05:18:10.589Z,987.41
2019-02-09T05:19:10.567Z,987.45
2019-02-09T05:20:10.543Z,987.49
2019-02-09T05:21:10.523Z,987.46
2019-02-09T05:22:10.520Z,987.45
2019-02-09T05:23:10.478Z,987.43
2019-02-09T05:24:10.473Z,987.48
2019-02-09T05:25:10.445Z,987.47
2019-02-09T05:26:10.401Z,987.50
2019-02-09T05:27:10.393Z,987.49
2019-02-09T05:28:10.355Z,987.44
2019-02-09T05:29:10.362Z,987.44
2019-02-09T05:30:10.303Z,987.43
2019-02-09T05:31:10.298Z,987.47
2019-02-09T05:32:10.255Z,987.50
2019-02-09T05:33:10.240Z,987.48
2019-02-09T05:34:10.228Z,987.46
2019-02-09T05:35:10.190Z,987.46
2019-02-09T05:36:10.167Z,987.41
2019-02-09T05:37:10.151Z,987.51
2019-02-09T05:38:10.119Z,987.52
2019-02-09T05:39:10.109Z,987.57
2019-02-09T05:40:10.071Z,987.53
2019-02-09T05:41:10.060Z,987.62
2019-02-09T05:42:10.048Z,987.53
2019-02-09T05:43:10.011Z,987.61
2019-02-09T05:44:09.980Z,987.59
2019-02-09T05:45:09.992Z,987.57
2019-02-09T05:46:09.982Z,987.60
2019-02-09T05:47:09.916Z,987.62
2019-02-09T05:48:09.929Z,987.65
2019-02-09T05:49:09.860Z,987.68
2019-02-09T05:50:09.856Z,987.70
2019-02-09T05:51:09.846Z,987.78
2019-02-09T05:52:09.795Z,987.83
2019-02-09T05:53:09.798Z,987.76
2019-02-09T05:54:09.770Z,987.81
2019-02-09T05:55:09.723Z,987.81
2019-02-09T05:56:09.708Z,987.80
2019-02-09T05:57:09.676Z,987.84
2019-02-09T05:58:09.673Z,987.84
2019-02-09T05:59:09.637Z,987.83
2019-02-09T06:00:09.641Z,987.87
2019-02-09T06:01:09.622Z,987.91
2019-02-09T06:02:09.573Z,987.97
2019-02-09T06:03:09.546Z,987.99
2019-02-09T06:04:09.534Z,987.91
2019-02-09T06:05:09.508Z,987.99
2019-02-09T06:06:09.463Z,987.95
2019-02-09T06:07:09.457Z,988.11
2019-02-09T06:08:09.445Z,988.12
2019-02-09T06:09:09.396Z,988.09
2019-02-09T06:10:09.371Z,988.18
2019-02-09T06:11:09.354Z,988.17
2019-02-09T06:12:09.355Z,988.15
2019-02-09T06:13:09.314Z,988.16
2019-02-09T06:14:09.318Z,988.13
2019-02-09T06:15:09.254Z,988.19
2019-02-09T06:16:09.245Z,988.15
2019-02-09T06:17:09.239Z,988.20
2019-02-09T06:18:09.201Z,988.16
2019-02-09T06:19:09.158Z,988.22
2019-02-09T06:20:09.143Z,988.19
2019-02-09T06:21:09.124Z,988.19
2019-02-09T06:22:09.108Z,988.31
2019-02-09T06:23:09.072Z,988.20
2019-02-09T06:24:09.052Z,988.13
2019-02-09T06:25:09.020Z,988.24
2019-02-09T06:26:08.994Z,988.17
2019-02-09T06:27:09.009Z,988.25
2019-02-09T06:28:08.970Z,988.34
2019-02-09T06:29:08.940Z,988.27
2019-02-09T06:30:08.908Z,988.20
2019-02-09T06:31:08.901Z,988.22
2019-02-09T06:32:08.905Z,988.25
2019-02-09T06:33:08.838Z,988.20
2019-02-09T06:34:08.842Z,988.17
2019-02-09T06:35:08.801Z,988.22
2019-02-09T06:36:08.782Z,988.29
2019-02-09T06:37:08.759Z,988.28
2019-02-09T06:38:08.746Z,988.34
2019-02-09T06:39:08.702Z,988.40
2019-02-09T06:40:08.671Z,988.46
2019-02-09T06:41:08.672Z,988.40
2019-02-09T06:42:08.650Z,988.37
2019-02-09T06:43:08.613Z,988.30
2019-02-09T06:44:08.596Z,988.31
2019-02-09T06:45:08.558Z,988.35
2019-02-09T06:46:08.537Z,988.43
2019-02-09T06:47:08.515Z,988.39
2019-02-09T06:48:08.501Z,988.39
2019-02-09T06:49:08.506Z,988.36
2019-02-09T06:50:08.435Z,988.48
2019-02-09T06:51:08.423Z,988.42
2019-02-09T06:52:08.398Z,988.39
2019-02-09T06:53:08.366Z,988.49
2019-02-09T06:54:08.349Z,988.52
2019-02-09T06:55:08.343Z,988.42
2019-02-09T06:56:08.298Z,988.50
2019-02-09T06:57:08.275Z,988.55
2019-02-09T06:58:08.261Z,988.47
2019-02-09T06:59:08.235Z,988.52
2019-02-09T07:00:08.217Z,988.49
2019-02-09T07:01:08.186Z,988.48
2019-02-09T07:02:08.176Z,988.48
2019-02-09T07:03:08.130Z,988.55
2019-02-09T07:04:08.111Z,988.52
2019-02-09T07:05:08.089Z,988.56
2019-02-09T07:06:08.083Z,988.62
2019-02-09T07:07:08.048Z,988.71
2019-02-09T07:08:08.085Z,988.64
2019-02-09T07:09:07.990Z,988.65
2019-02-09T07:10:07.974Z,988.83
2019-02-09T07:11:07.949Z,988.82
2019-02-09T07:12:07.921Z,988.87
2019-02-09T07:13:07.903Z,988.97
2019-02-09T07:14:07.909Z,989.00
2019-02-09T07:15:07.887Z,988.99
2019-02-09T07:16:07.824Z,989.01
2019-02-09T07:17:07.796Z,989.08
2019-02-09T07:18:07.773Z,989.17
2019-02-09T07:19:07.767Z,989.17
2019-02-09T07:20:07.732Z,989.21
2019-02-09T07:21:07.720Z,989.26
2019-02-09T07:22:07.692Z,989.19
2019-02-09T07:23:07.664Z,989.30
2019-02-09T07:24:07.639Z,989.35
2019-02-09T07:25:07.615Z,989.29
2019-02-09T07:26:07.588Z,989.28
2019-02-09T07:27:07.561Z,989.35
2019-02-09T07:28:07.589Z,989.29
2019-02-09T07:29:07.515Z,989.23
2019-02-09T07:30:07.541Z,989.29
2019-02-09T07:31:07.470Z,989.28
2019-02-09T07:32:07.456Z,989.17
2019-02-09T07:33:07.422Z,989.20
2019-02-09T07:34:07.422Z,989.18
2019-02-09T07:35:07.386Z,989.20
2019-02-09T07:36:07.370Z,989.20
2019-02-09T07:37:07.339Z,989.22
2019-02-09T07:38:07.325Z,989.28
2019-02-09T07:39:07.282Z,989.27
2019-02-09T07:40:07.260Z,989.27
2019-02-09T07:41:07.241Z,989.30
2019-02-09T07:42:07.227Z,989.34
2019-02-09T07:43:07.194Z,989.32
2019-02-09T07:44:07.161Z,989.32
2019-02-09T07:45:07.146Z,989.36
2019-02-09T07:46:07.136Z,989.34
2019-02-09T07:47:07.103Z,989.34
2019-02-09T07:48:07.062Z,989.40
2019-02-09T07:49:07.051Z,989.40
2019-02-09T07:50:07.017Z,989.38
2019-02-09T07:51:06.997Z,989.41
2019-02-09T07:52:06.998Z,989.50
2019-02-09T07:53:06.964Z,989.46
2019-02-09T07:54:06.926Z,989.53
2019-02-09T07:55:06.929Z,989.51
2019-02-09T07:56:06.912Z,989.56
2019-02-09T07:57:06.856Z,989.53
2019-02-09T07:58:06.825Z,989.54
2019-02-09T07:59:06.814Z,989.53
2019-02-09T08:00:06.783Z,989.59
2019-02-09T08:01:06.796Z,989.58
2019-02-09T08:02:06.757Z,989.51
2019-02-09T08:03:06.722Z,989.59
2019-02-09T08:04:06.688Z,989.66
2019-02-09T08:05:06.678Z,989.68
2019-02-09T08:06:06.668Z,989.69
2019-02-09T08:07:06.612Z,989.71
2019-02-09T08:08:06.615Z,989.75
2019-02-09T08:09:06.614Z,989.87
2019-02-09T08:10:06.557Z,989.82
2019-02-09T08:11:09.218Z,989.81
2019-02-09T08:12:06.513Z,989.75
2019-02-09T08:13:06.521Z,989.78
2019-02-09T08:14:06.449Z,989.83
2019-02-09T08:15:06.454Z,989.79
2019-02-09T08:16:06.419Z,989.84
2019-02-09T08:17:06.376Z,989.87
2019-02-09T08:18:06.351Z,989.82
2019-02-09T08:19:06.333Z,989.85
2019-02-09T08:20:06.322Z,989.86
2019-02-09T08:21:06.303Z,989.85
2019-02-09T08:22:06.301Z,989.88
2019-02-09T08:23:06.235Z,989.88
2019-02-09T08:24:07.290Z,989.85
2019-02-09T08:25:06.186Z,989.96
2019-02-09T08:26:06.186Z,989.96
2019-02-09T08:27:06.169Z,989.93
2019-02-09T08:28:06.122Z,989.94
2019-02-09T08:29:06.135Z,989.99
2019-02-09T08:30:06.082Z,989.94
2019-02-09T08:31:06.071Z,989.95
2019-02-09T08:32:12.586Z,989.96
2019-02-09T08:33:06.015Z,989.96
2019-02-09T08:34:05.976Z,989.97
2019-02-09T08:35:05.978Z,990.00
2019-02-09T08:36:05.962Z,990.02
2019-02-09T08:37:05.942Z,989.98
2019-02-09T08:38:05.929Z,989.87
2019-02-09T08:39:05.895Z,989.92
2019-02-09T08:40:05.839Z,989.95
2019-02-09T08:41:05.844Z,989.97
2019-02-09T08:42:05.801Z,989.97
2019-02-09T08:43:05.868Z,989.94
2019-02-09T08:44:05.738Z,989.93
2019-02-09T08:45:05.724Z,989.90
2019-02-09T08:46:05.712Z,989.95
2019-02-09T08:47:05.670Z,989.87
2019-02-09T08:48:05.655Z,989.92
2019-02-09T08:49:05.632Z,990.04
2019-02-09T08:50:05.624Z,989.95
2019-02-09T08:51:05.586Z,990.01
2019-02-09T08:52:05.549Z,990.03
2019-02-09T08:53:05.540Z,990.14
2019-02-09T08:54:05.563Z,990.07
2019-02-09T08:55:05.482Z,990.14
2019-02-09T08:56:05.968Z,990.14
2019-02-09T08:57:05.450Z,990.14
2019-02-09T08:58:05.410Z,990.07
2019-02-09T08:59:05.392Z,990.11
2019-02-09T09:00:05.665Z,990.05
2019-02-09T09:01:05.346Z,990.00
2019-02-09T09:02:05.321Z,990.12
2019-02-09T09:03:05.301Z,990.09
2019-02-09T09:04:05.277Z,990.06
2019-02-09T09:05:09.720Z,990.15
2019-02-09T09:06:05.243Z,990.11
2019-02-09T09:07:05.203Z,990.02
2019-02-09T09:08:05.205Z,990.03
2019-02-09T09:09:05.171Z,990.04
2019-02-09T09:10:05.254Z,990.08
2019-02-09T09:11:05.112Z,990.14
2019-02-09T09:12:05.100Z,990.09
2019-02-09T09:13:08.439Z,990.09
2019-02-09T09:14:05.141Z,990.07
2019-02-09T09:15:05.032Z,990.13
2019-02-09T09:16:05.002Z,990.06
2019-02-09T09:17:05.004Z,990.18
2019-02-09T09:18:04.965Z,990.11
2019-02-09T09:19:04.937Z,990.20
2019-02-09T09:20:04.910Z,990.27
2019-02-09T09:21:04.898Z,990.18
2019-02-09T09:22:04.899Z,990.18
2019-02-09T09:23:04.993Z,990.30
2019-02-09T09:24:04.873Z,990.26
2019-02-09T09:25:05.392Z,990.37
2019-02-09T09:26:04.769Z,990.34
2019-02-09T09:27:04.763Z,990.31
2019-02-09T09:28:04.735Z,990.40
2019-02-09T09:29:04.714Z,990.44
2019-02-09T09:30:04.688Z,990.32
2019-02-09T09:31:04.676Z,990.40
2019-02-09T09:32:04.636Z,990.44
2019-02-09T09:33:04.622Z,990.33
2019-02-09T09:34:04.594Z,990.49
2019-02-09T09:35:04.565Z,990.44
2019-02-09T09:36:04.557Z,990.38
2019-02-09T09:37:04.541Z,990.46
2019-02-09T09:38:04.536Z,990.34
2019-02-09T09:39:04.500Z,990.49
2019-02-09T09:40:04.464Z,990.57
2019-02-09T09:41:04.465Z,990.40
2019-02-09T09:42:04.426Z,990.49
2019-02-09T09:43:04.398Z,990.39
2019-02-09T09:44:04.377Z,990.37
2019-02-09T09:45:04.342Z,990.34
2019-02-09T09:46:04.322Z,990.51
2019-02-09T09:47:04.307Z,990.24
2019-02-09T09:48:04.312Z,990.31
2019-02-09T09:49:04.256Z,990.26
2019-02-09T09:50:04.262Z,990.32
2019-02-09T09:51:04.238Z,990.31
2019-02-09T09:52:04.200Z,990.31
2019-02-09T09:53:04.193Z,990.37
2019-02-09T09:54:04.156Z,990.33
2019-02-09T09:55:04.147Z,990.44
2019-02-09T09:56:04.104Z,990.30
2019-02-09T09:57:04.092Z,990.48
2019-02-09T09:58:04.062Z,990.48
2019-02-09T09:59:04.057Z,990.48
2019-02-09T10:00:04.029Z,990.50
2019-02-09T10:01:04.017Z,990.45
2019-02-09T10:02:03.993Z,990.50
2019-02-09T10:03:03.964Z,990.49
2019-02-09T10:04:03.949Z,990.56
2019-02-09T10:05:03.912Z,990.54
2019-02-09T10:06:03.887Z,990.30
2019-02-09T10:07:03.886Z,990.42
2019-02-09T10:08:03.844Z,990.51
2019-02-09T10:09:03.829Z,990.51
2019-02-09T10:10:03.821Z,990.56
2019-02-09T10:11:03.781Z,990.49
2019-02-09T10:12:03.749Z,990.50
2019-02-09T10:13:03.725Z,990.53
2019-02-09T10:14:08.710Z,990.53
2019-02-09T10:15:03.690Z,990.43
2019-02-09T10:16:03.668Z,990.46
2019-02-09T10:17:03.631Z,990.46
2019-02-09T10:18:03.650Z,990.34
2019-02-09T10:19:03.601Z,990.50
2019-02-09T10:20:03.576Z,990.30
2019-02-09T10:21:03.547Z,990.37
2019-02-09T10:22:03.526Z,990.42
2019-02-09T10:23:03.516Z,990.52
2019-02-09T10:24:03.505Z,990.56
2019-02-09T10:25:03.467Z,990.57
2019-02-09T10:26:03.465Z,990.62
2019-02-09T10:27:03.439Z,990.62
2019-02-09T10:28:03.420Z,990.65
2019-02-09T10:29:03.399Z,990.58
2019-02-09T10:30:03.371Z,990.69
2019-02-09T10:31:03.341Z,990.55
2019-02-09T10:32:03.354Z,990.74
2019-02-09T10:33:03.303Z,990.68
2019-02-09T10:34:03.295Z,990.75
2019-02-09T10:35:03.249Z,990.70
2019-02-09T10:36:03.215Z,990.75
2019-02-09T10:37:03.198Z,990.84
2019-02-09T10:38:03.206Z,990.77
2019-02-09T10:39:03.177Z,990.99
2019-02-09T10:40:03.136Z,990.92
2019-02-09T10:41:03.111Z,990.89
2019-02-09T10:42:03.098Z,990.93
2019-02-09T10:43:03.076Z,990.86
2019-02-09T10:44:03.062Z,991.01
2019-02-09T10:45:03.022Z,991.08
2019-02-09T10:46:03.017Z,991.08
2019-02-09T10:47:02.986Z,991.04
2019-02-09T10:48:02.985Z,990.92
2019-02-09T10:49:02.941Z,990.89
2019-02-09T10:50:02.919Z,990.91
2019-02-09T10:51:02.906Z,990.85
2019-02-09T10:52:02.870Z,990.88
2019-02-09T10:53:02.860Z,990.94
2019-02-09T10:54:02.837Z,990.86
2019-02-09T10:55:02.825Z,990.92
2019-02-09T10:56:02.789Z,990.97
2019-02-09T10:57:02.770Z,990.96
2019-02-09T10:58:02.743Z,991.03
2019-02-09T10:59:02.728Z,991.06
2019-02-09T11:00:02.720Z,991.20
2019-02-09T11:01:02.679Z,991.07
2019-02-09T11:02:02.675Z,991.19
2019-02-09T11:03:02.639Z,991.01
2019-02-09T11:04:02.617Z,991.16
2019-02-09T11:05:02.587Z,990.97
2019-02-09T11:06:02.706Z,991.08
2019-02-09T11:07:02.610Z,991.05
2019-02-09T11:08:02.520Z,991.02
2019-02-09T11:09:02.566Z,991.02
2019-02-09T11:10:02.473Z,991.06
2019-02-09T11:11:02.456Z,990.98
2019-02-09T11:12:02.886Z,991.11
2019-02-09T11:13:02.702Z,990.97
2019-02-09T11:14:02.398Z,990.98
2019-02-09T11:15:02.366Z,991.01
2019-02-09T11:16:02.354Z,990.99
2019-02-09T11:17:02.321Z,991.04
2019-02-09T11:18:02.305Z,990.99
2019-02-09T11:19:02.275Z,991.00
2019-02-09T11:20:02.266Z,991.17
2019-02-09T11:21:02.253Z,991.06
2019-02-09T11:22:02.205Z,990.89
2019-02-09T11:23:02.214Z,990.93
2019-02-09T11:24:02.208Z,990.91
2019-02-09T11:25:02.147Z,990.99
2019-02-09T11:26:02.131Z,991.01
2019-02-09T11:27:02.119Z,991.03
2019-02-09T11:28:02.095Z,990.80
2019-02-09T11:29:02.080Z,990.97
2019-02-09T11:30:02.037Z,990.81
2019-02-09T11:31:02.014Z,990.94
2019-02-09T11:32:02.007Z,990.87
2019-02-09T11:33:02.700Z,990.85
2019-02-09T11:34:01.961Z,990.95
2019-02-09T11:35:01.940Z,990.84
2019-02-09T11:36:01.913Z,990.85
2019-02-09T11:37:01.889Z,990.78
2019-02-09T11:38:01.868Z,990.70
2019-02-09T11:39:01.871Z,990.76
2019-02-09T11:40:01.845Z,990.94
2019-02-09T11:41:01.797Z,990.76
2019-02-09T11:42:01.779Z,990.72
2019-02-09T11:43:01.778Z,990.73
2019-02-09T11:44:01.727Z,990.73
2019-02-09T11:45:01.711Z,990.65
2019-02-09T11:46:01.702Z,990.45
2019-02-09T11:47:01.666Z,990.62
2019-02-09T11:48:01.665Z,990.48
2019-02-09T11:49:01.659Z,990.72
2019-02-09T11:50:01.612Z,990.55
2019-02-09T11:51:01.598Z,990.58
2019-02-09T11:52:01.559Z,990.64
2019-02-09T11:53:02.063Z,990.65
2019-02-09T11:54:01.512Z,990.66
2019-02-09T11:55:01.496Z,990.73
2019-02-09T11:56:01.503Z,990.78
2019-02-09T11:57:01.444Z,990.79
2019-02-09T11:58:01.429Z,990.70
2019-02-09T11:59:01.419Z,990.82
2019-02-09T12:00:01.382Z,990.75
2019-02-09T12:01:01.352Z,990.73
2019-02-09T12:02:01.337Z,990.87
2019-02-09T12:03:05.509Z,990.83
2019-02-09T12:04:01.295Z,990.85
2019-02-09T12:05:01.276Z,990.91
2019-02-09T12:06:01.246Z,990.75
2019-02-09T12:07:01.233Z,990.81
2019-02-09T12:08:01.206Z,990.75
2019-02-09T12:09:01.179Z,990.88
2019-02-09T12:10:01.183Z,990.93
2019-02-09T12:11:01.157Z,990.90
2019-02-09T12:12:01.139Z,990.86
2019-02-09T12:13:01.094Z,990.93
2019-02-09T12:14:01.115Z,991.00
2019-02-09T12:15:01.055Z,991.01
2019-02-09T12:16:01.040Z,990.95
2019-02-09T12:17:01.022Z,990.97
2019-02-09T12:18:01.056Z,990.93
2019-02-09T12:19:00.981Z,990.92
2019-02-09T12:20:00.957Z,990.92
2019-02-09T12:21:00.928Z,990.88
2019-02-09T12:22:00.917Z,990.61
2019-02-09T12:23:00.881Z,990.90
2019-02-09T12:24:00.866Z,990.80
2019-02-09T12:25:00.836Z,990.87
2019-02-09T12:26:00.820Z,991.14
2019-02-09T12:27:00.790Z,990.96
2019-02-09T12:28:00.778Z,990.75
2019-02-09T12:29:00.746Z,990.91
2019-02-09T12:30:00.723Z,990.89
2019-02-09T12:31:00.722Z,990.95
2019-02-09T12:32:00.693Z,990.90